Latest Weather Observations for Cape Ferguson

IDQ60801

Issued at 3:35 pm EST Wednesday 1 October 2014 (issued every 30 minutes, with the page automatically refreshed every 10 minutes)

About weather observations | Map of weather stations | Latest weather observations for QLD | Other Formats
Station Details ID: 032182 Name: CAPE FERGUSON NTC AWS Lat: -19.28 Lon: 147.06 Height: 0.0 m
Data from the previous 72 hours. | See also: Recent months for locations in Queensland
Date/Time
EST
Temp
°C
App
Temp
°C
Dew
Point
Rel
Hum
%
Delta-T
°C
Wind Press
QNH
hPa
Press
MSL
hPa
Rain
since 9 am
mm
Dir
 
Spd
km/h
Gust
km/h
Spd
kts
Gust
kts
01/03:30pm 23.4 - - - - ENE 22 26 12 14 1015.1 1015.1 -
01/03:00pm 23.3 - - - - E 24 30 13 16 1015.2 1015.2 -
01/02:30pm 23.3 - - - - ENE 22 28 12 15 1015.5 1015.5 -
01/02:00pm 23.3 - - - - E 24 28 13 15 1015.9 1015.9 -
01/01:30pm 23.4 - - - - E 22 28 12 15 1016.3 1016.3 -
01/01:00pm 23.2 - - - - E 20 24 11 13 1016.8 1016.8 -
01/12:30pm 23.2 - - - - E 17 22 9 12 1017.1 1017.1 -
01/12:00pm 23.4 - - - - E 17 22 9 12 1017.6 1017.6 -
01/11:30am 23.4 - - - - E 9 13 5 7 1017.9 1017.9 -
01/11:00am 23.3 - - - - SE 9 15 5 8 1018.4 1018.4 -
01/10:30am 23.2 - - - - SE 13 19 7 10 1018.8 1018.8 -
01/10:00am 22.9 - - - - SSE 13 17 7 9 1018.9 1018.9 -
01/09:30am 22.6 - - - - SSE 15 19 8 10 1018.9 1018.9 -
01/09:00am 22.2 - - - - S 11 17 6 9 1019.0 1019.0 -
01/08:30am 21.5 - - - - SSE 11 17 6 9 1019.1 1019.1 -
01/08:00am 21.4 - - - - S 6 13 3 7 1018.8 1018.8 -
01/07:30am 21.0 - - - - SSW 6 9 3 5 1018.6 1018.6 -
01/07:00am 21.3 - - - - CALM 0 6 0 3 1018.1 1018.1 -
01/06:30am 19.7 - - - - WNW 4 7 2 4 1017.7 1017.7 -
01/06:00am 19.9 - - - - WNW 4 7 2 4 1017.5 1017.5 -
01/05:30am 20.0 - - - - WNW 11 13 6 7 1017.4 1017.4 -
01/05:00am 20.6 - - - - S 11 15 6 8 1017.2 1017.2 -
01/04:30am 21.6 - - - - SSE 15 19 8 10 1017.1 1017.1 -
01/04:00am 21.6 - - - - S 11 17 6 9 1016.8 1016.8 -
01/03:30am 23.1 - - - - ESE 15 19 8 10 1016.7 1016.7 -
01/03:00am 23.0 - - - - E 15 20 8 11 1016.7 1016.7 -
01/02:30am 22.4 - - - - SE 15 20 8 11 1016.9 1016.9 -
01/02:00am 23.2 - - - - ESE 19 24 10 13 1017.2 1017.2 -
01/01:30am 23.3 - - - - E 15 20 8 11 1017.5 1017.5 -
01/01:00am 23.2 - - - - E 19 24 10 13 1017.7 1017.7 -
01/12:30am 23.3 - - - - E 22 30 12 16 1017.9 1017.9 -
01/12:00am 23.3 - - - - E 22 26 12 14 1018.2 1018.2 -
 
Date/Time
EST
Temp
°C
App
Temp
°C
Dew
Point
Rel
Hum
%
Delta-T
°C
Wind Press
QNH
hPa
Press
MSL
hPa
Rain
since 9 am
mm
Dir
 
Spd
km/h
Gust
km/h
Spd
kts
Gust
kts
30/11:30pm 23.4 - - - - ENE 17 20 9 11 1018.3 1018.3 -
30/11:00pm 23.5 - - - - E 19 24 10 13 1018.5 1018.5 -
30/10:30pm 23.6 - - - - ENE 20 28 11 15 1018.8 1018.8 -
30/10:00pm 23.6 - - - - ENE 19 24 10 13 1018.7 1018.7 -
30/09:30pm 23.8 - - - - E 20 24 11 13 1018.8 1018.8 -
30/09:00pm 23.7 - - - - E 19 24 10 13 1018.6 1018.6 -
30/08:30pm 23.6 - - - - ENE 19 24 10 13 1018.4 1018.4 -
30/08:00pm 23.6 - - - - ENE 17 22 9 12 1018.1 1018.1 -
30/07:30pm 23.7 - - - - ENE 19 24 10 13 1017.9 1017.9 -
30/07:00pm 23.6 - - - - ENE 20 28 11 15 1017.7 1017.7 -
30/06:30pm 23.6 - - - - ENE 20 24 11 13 1017.2 1017.2 -
30/06:00pm 23.7 - - - - ENE 20 26 11 14 1016.9 1016.9 -
30/05:30pm 23.7 - - - - ENE 22 28 12 15 1016.6 1016.6 -
30/05:00pm 23.6 - - - - ENE 24 28 13 15 1016.3 1016.3 -
30/04:30pm 23.6 - - - - ENE 22 28 12 15 1016.0 1016.0 -
30/04:00pm 23.4 - - - - ENE 22 28 12 15 1016.1 1016.1 -
30/03:30pm 23.6 - - - - E 24 30 13 16 1016.2 1016.2 -
30/03:00pm 23.5 - - - - E 24 30 13 16 1016.3 1016.3 -
30/02:30pm 23.3 - - - - E 24 30 13 16 1016.4 1016.4 -
30/02:00pm 23.1 - - - - E 22 26 12 14 1016.7 1016.7 -
30/01:30pm 23.0 - - - - E 22 26 12 14 1017.0 1017.0 -
30/01:00pm 22.9 - - - - E 22 26 12 14 1017.6 1017.6 -
30/12:30pm 22.9 - - - - E 19 24 10 13 1018.0 1018.0 -
30/12:00pm 23.1 - - - - E 20 26 11 14 1018.5 1018.5 -
30/11:30am 23.1 - - - - E 17 20 9 11 1019.0 1019.0 -
30/11:00am 23.1 - - - - ESE 7 13 4 7 1019.4 1019.4 -
30/10:30am 23.0 - - - - SE 11 17 6 9 1019.8 1019.8 -
30/10:00am 22.8 - - - - SE 9 15 5 8 1020.0 1020.0 -
30/09:30am 22.4 - - - - SE 11 17 6 9 1020.3 1020.3 -
30/09:00am 22.3 - - - - SSE 13 19 7 10 1020.1 1020.1 -
30/08:30am 21.9 - - - - SSE 15 20 8 11 1020.1 1020.1 -
30/08:00am 21.5 - - - - S 11 19 6 10 1020.0 1020.0 -
30/07:30am 20.4 - - - - WSW 6 13 3 7 1019.7 1019.7 -
30/07:00am 20.2 - - - - WSW 9 13 5 7 1019.3 1019.3 -
30/06:30am 19.9 - - - - WSW 7 15 4 8 1018.9 1018.9 -
30/06:00am 20.6 - - - - S 13 19 7 10 1018.7 1018.7 -
30/05:30am 21.1 - - - - SSE 19 22 10 12 1018.6 1018.6 -
30/05:00am 21.4 - - - - SSE 19 24 10 13 1018.1 1018.1 -
30/04:30am 21.7 - - - - SE 19 28 10 15 1017.8 1017.8 -
30/04:00am 22.0 - - - - SSE 19 26 10 14 1017.4 1017.4 -
30/03:30am 22.9 - - - - E 28 33 15 18 1017.5 1017.5 -
30/03:00am 23.0 - - - - E 28 33 15 18 1017.6 1017.6 -
30/02:30am 22.9 - - - - E 28 37 15 20 1017.7 1017.7 -
30/02:00am 23.1 - - - - E 32 44 17 24 1017.8 1017.8 -
30/01:30am 23.2 - - - - E 30 39 16 21 1017.9 1017.9 -
30/01:00am 23.3 - - - - E 30 37 16 20 1018.0 1018.0 -
30/12:30am 23.3 - - - - E 30 37 16 20 1018.2 1018.2 -
30/12:00am 23.4 - - - - E 28 33 15 18 1018.5 1018.5 -
 
Date/Time
EST
Temp
°C
App
Temp
°C
Dew
Point
Rel
Hum
%
Delta-T
°C
Wind Press
QNH
hPa
Press
MSL
hPa
Rain
since 9 am
mm
Dir
 
Spd
km/h
Gust
km/h
Spd
kts
Gust
kts
29/11:30pm 23.3 - - - - E 28 33 15 18 1018.7 1018.7 -
29/11:00pm 23.4 - - - - E 28 32 15 17 1018.8 1018.8 -
29/10:30pm 23.6 - - - - E 26 33 14 18 1018.8 1018.8 -
29/10:00pm 23.7 - - - - E 26 32 14 17 1018.7 1018.7 -
29/09:30pm 23.7 - - - - E 24 30 13 16 1018.7 1018.7 -
29/09:00pm 23.6 - - - - E 24 30 13 16 1018.7 1018.7 -
29/08:30pm 23.7 - - - - E 24 28 13 15 1018.3 1018.3 -
29/08:00pm 23.7 - - - - E 22 28 12 15 1018.1 1018.1 -
29/07:30pm 23.6 - - - - E 22 28 12 15 1017.7 1017.7 -
29/07:00pm 23.7 - - - - E 22 26 12 14 1017.3 1017.3 -
29/06:30pm 23.7 - - - - E 26 32 14 17 1017.0 1017.0 -
29/06:00pm 23.9 - - - - E 26 30 14 16 1016.6 1016.6 -
29/05:30pm 23.9 - - - - ENE 28 33 15 18 1016.4 1016.4 -
29/05:00pm 23.9 - - - - ENE 30 37 16 20 1016.1 1016.1 -
29/04:30pm 23.9 - - - - E 28 35 15 19 1016.0 1016.0 -
29/04:00pm 23.8 - - - - E 22 28 12 15 1015.9 1015.9 -
29/03:30pm 23.6 - - - - ENE 20 26 11 14 1015.9 1015.9 -
29/03:00pm 23.7 - - - - E 20 24 11 13 1016.1 1016.1 -
29/02:30pm 23.8 - - - - E 20 26 11 14 1016.2 1016.2 -
29/02:00pm 23.6 - - - - E 22 28 12 15 1016.5 1016.5 -
29/01:30pm 23.7 - - - - E 24 28 13 15 1016.8 1016.8 -
29/01:00pm 23.6 - - - - E 24 28 13 15 1017.1 1017.1 -
29/12:30pm 23.4 - - - - E 22 28 12 15 1017.5 1017.5 -
29/12:00pm 23.4 - - - - E 22 28 12 15 1018.1 1018.1 -
29/11:30am 23.4 - - - - E 20 26 11 14 1018.6 1018.6 -
29/11:00am 23.5 - - - - E 17 20 9 11 1018.9 1018.9 -
29/10:30am 23.6 - - - - E 20 26 11 14 1019.3 1019.3 -
29/10:00am 23.5 - - - - ESE 13 19 7 10 1019.2 1019.2 -
29/09:30am 23.1 - - - - ESE 15 22 8 12 1019.3 1019.3 -
29/09:00am 22.9 - - - - SE 17 20 9 11 1019.2 1019.2 -
29/08:30am 22.5 - - - - SE 17 20 9 11 1019.1 1019.1 -
29/08:00am 21.9 - - - - SSE 17 20 9 11 1019.0 1019.0 -
29/07:30am 21.6 - - - - SSE 17 20 9 11 1018.8 1018.8 -
29/07:00am 21.6 - - - - SSE 17 20 9 11 1018.4 1018.4 -
29/06:30am 21.3 - - - - S 17 22 9 12 1017.9 1017.9 -
29/06:00am 21.6 - - - - SSE 20 24 11 13 1017.7 1017.7 -
29/05:30am 21.9 - - - - SSE 19 22 10 12 1017.1 1017.1 -
29/05:00am 22.6 - - - - SE 17 22 9 12 1016.7 1016.7 -
29/04:30am 23.4 - - - - E 17 20 9 11 1016.4 1016.4 -
29/04:00am 23.5 - - - - E 19 22 10 12 1016.2 1016.2 -
29/03:30am 23.4 - - - - E 19 22 10 12 1016.2 1016.2 -
29/03:00am 23.4 - - - - E 17 22 9 12 1016.2 1016.2 -
29/02:30am 23.4 - - - - E 17 20 9 11 1016.5 1016.5 -
29/02:00am 23.5 - - - - E 19 24 10 13 1016.8 1016.8 -
29/01:30am 23.5 - - - - ENE 19 22 10 12 1017.0 1017.0 -
29/01:00am 23.5 - - - - E 17 20 9 11 1017.3 1017.3 -
29/12:30am 23.7 - - - - ENE 15 22 8 12 1017.5 1017.5 -
29/12:00am 23.6 - - - - E 17 22 9 12 1017.7 1017.7 -
 
Date/Time
EST
Temp
°C
App
Temp
°C
Dew
Point
Rel
Hum
%
Delta-T
°C
Wind Press
QNH
hPa
Press
MSL
hPa
Rain
since 9 am
mm
Dir
 
Spd
km/h
Gust
km/h
Spd
kts
Gust
kts
28/11:30pm 23.5 - - - - ENE 17 20 9 11 1017.8 1017.8 -
28/11:00pm 23.6 - - - - ENE 19 22 10 12 1018.0 1018.0 -
28/10:30pm 23.6 - - - - ENE 17 22 9 12 1017.9 1017.9 -
28/10:00pm 23.6 - - - - ENE 17 22 9 12 1018.1 1018.1 -
28/09:30pm 23.7 - - - - ENE 15 19 8 10 1018.1 1018.1 -
28/09:00pm 23.8 - - - - E 17 20 9 11 1018.1 1018.1 -
28/08:30pm 23.8 - - - - ENE 15 19 8 10 1018.0 1018.0 -
28/08:00pm 23.9 - - - - ENE 15 20 8 11 1017.6 1017.6 -
28/07:30pm 23.9 - - - - ENE 15 19 8 10 1017.4 1017.4 -
28/07:00pm 24.1 - - - - ENE 15 20 8 11 1017.2 1017.2 -
28/06:30pm 24.2 - - - - ENE 15 19 8 10 1016.8 1016.8 -
28/06:00pm 24.3 - - - - ENE 15 19 8 10 1016.3 1016.3 -
28/05:30pm 24.4 - - - - ENE 15 19 8 10 1016.0 1016.0 -
28/05:00pm 24.3 - - - - ENE 9 17 5 9 1015.7 1015.7 -
28/04:30pm 24.4 - - - - ENE 9 17 5 9 1015.5 1015.5 -
28/04:00pm 24.4 - - - - ENE 11 17 6 9 1015.5 1015.5 -

Other Formats:

Comma delimited format used in spreadsheet applications
http://www.bom.gov.au/fwo/IDQ60801/IDQ60801.94297.axf

JavaScript Object Notation format (JSON) in row-major order
http://www.bom.gov.au/fwo/IDQ60801/IDQ60801.94297.json